createdAt,value
2019-06-27T00:02:27.970Z,3.10
2019-06-27T00:05:16.363Z,3.33
2019-06-27T00:08:04.968Z,3.30
2019-06-27T00:10:53.063Z,2.97
2019-06-27T00:13:40.987Z,3.10
2019-06-27T00:16:29.702Z,3.50
2019-06-27T00:19:18.163Z,3.80
2019-06-27T00:22:06.367Z,4.27
2019-06-27T00:24:54.316Z,3.57
2019-06-27T00:27:43.359Z,4.10
2019-06-27T00:30:31.496Z,4.53
2019-06-27T00:33:20.472Z,4.30
2019-06-27T00:36:08.878Z,4.23
2019-06-27T00:38:56.717Z,4.07
2019-06-27T00:41:44.546Z,4.40
2019-06-27T00:44:32.535Z,4.23
2019-06-27T00:47:20.898Z,5.03
2019-06-27T00:50:09.374Z,3.87
2019-06-27T00:52:58.698Z,4.87
2019-06-27T00:55:47.650Z,4.43
2019-06-27T00:58:36.190Z,5.27
2019-06-27T01:01:24.880Z,5.90
2019-06-27T01:04:13.147Z,5.03
2019-06-27T01:07:01.367Z,5.20
2019-06-27T01:09:49.317Z,5.27
2019-06-27T01:12:37.527Z,4.93
2019-06-27T01:15:26.188Z,5.77
2019-06-27T01:18:14.431Z,5.20
2019-06-27T01:21:03.559Z,5.33
2019-06-27T01:23:52.067Z,5.73
2019-06-27T01:26:40.443Z,5.47
2019-06-27T01:29:29.731Z,5.10
2019-06-27T01:32:18.555Z,4.60
2019-06-27T01:35:06.786Z,5.63
2019-06-27T01:37:54.606Z,6.63
2019-06-27T01:40:42.698Z,5.57
2019-06-27T01:43:31.114Z,5.17
2019-06-27T01:46:19.090Z,5.67
2019-06-27T01:49:07.763Z,6.00
2019-06-27T01:51:56.675Z,5.27
2019-06-27T01:54:44.966Z,4.53
2019-06-27T01:57:46.091Z,6.00
2019-06-27T02:00:23.899Z,5.30
2019-06-27T02:03:11.845Z,5.47
2019-06-27T02:06:00.855Z,6.13
2019-06-27T02:08:49.475Z,5.80
2019-06-27T02:11:37.826Z,5.43
2019-06-27T02:14:26.526Z,4.67
2019-06-27T02:17:14.586Z,5.53
2019-06-27T02:20:02.627Z,4.80
2019-06-27T02:22:50.607Z,5.13
2019-06-27T02:25:39.351Z,5.80
2019-06-27T02:28:27.216Z,6.07
2019-06-27T02:31:15.915Z,5.80
2019-06-27T02:34:06.744Z,5.50
2019-06-27T02:36:54.131Z,4.80
2019-06-27T02:39:42.563Z,5.00
2019-06-27T02:42:31.028Z,5.20
2019-06-27T02:45:19.434Z,5.30
2019-06-27T02:48:07.671Z,4.77
2019-06-27T02:50:56.135Z,5.33
2019-06-27T02:53:45.043Z,5.57
2019-06-27T02:56:33.964Z,6.00
2019-06-27T02:59:22.913Z,5.63
2019-06-27T03:02:11.482Z,5.77
2019-06-27T03:05:00.316Z,5.83
2019-06-27T03:07:49.537Z,5.50
2019-06-27T03:10:38.619Z,6.07
2019-06-27T03:13:26.774Z,5.27
2019-06-27T03:16:15.563Z,5.17
2019-06-27T03:19:03.979Z,5.10
2019-06-27T03:21:52.243Z,5.17
2019-06-27T03:24:40.996Z,5.03
2019-06-27T03:27:29.875Z,4.93
2019-06-27T03:30:18.370Z,4.70
2019-06-27T03:33:06.813Z,5.40
2019-06-27T03:35:54.953Z,5.90
2019-06-27T03:38:43.158Z,5.47
2019-06-27T03:41:31.517Z,4.93
2019-06-27T03:44:20.438Z,4.57
2019-06-27T03:47:08.973Z,5.20
2019-06-27T03:49:56.608Z,4.47
2019-06-27T03:52:45.457Z,5.63
2019-06-27T03:55:34.495Z,4.33
2019-06-27T03:58:23.198Z,4.20
2019-06-27T04:01:11.416Z,4.60
2019-06-27T04:04:00.220Z,4.93
2019-06-27T04:06:47.981Z,4.20
2019-06-27T04:09:36.168Z,4.40
2019-06-27T04:12:23.845Z,4.03
2019-06-27T04:15:12.622Z,4.40
2019-06-27T04:18:01.358Z,4.17
2019-06-27T04:20:50.074Z,4.20
2019-06-27T04:23:38.715Z,4.30
2019-06-27T04:26:26.791Z,4.67
2019-06-27T04:29:31.824Z,4.67
2019-06-27T04:32:03.884Z,4.87
2019-06-27T04:34:52.277Z,4.00
2019-06-27T04:37:40.885Z,3.90
2019-06-27T04:40:29.196Z,4.37
2019-06-27T04:43:17.714Z,4.53
2019-06-27T04:46:05.934Z,3.80
2019-06-27T04:48:54.365Z,3.23
2019-06-27T04:51:42.941Z,5.00
2019-06-27T04:54:31.668Z,4.43
2019-06-27T04:57:20.028Z,4.40
2019-06-27T05:00:08.538Z,4.30
2019-06-27T05:02:57.091Z,4.40
2019-06-27T05:05:45.727Z,3.40
2019-06-27T05:08:34.038Z,4.27
2019-06-27T05:11:22.409Z,3.80
2019-06-27T05:14:10.664Z,3.73
2019-06-27T05:16:59.335Z,3.80
2019-06-27T05:19:48.247Z,3.93
2019-06-27T05:22:36.767Z,3.40
2019-06-27T05:25:25.396Z,3.10
2019-06-27T05:28:14.041Z,3.47
2019-06-27T05:31:02.082Z,3.80
2019-06-27T05:33:50.376Z,3.80
2019-06-27T05:36:38.622Z,3.70
2019-06-27T05:39:26.989Z,4.00
2019-06-27T05:42:15.427Z,4.73
2019-06-27T05:45:03.585Z,4.20
2019-06-27T05:47:52.326Z,4.17
2019-06-27T05:50:41.050Z,3.87
2019-06-27T05:53:29.939Z,4.13
2019-06-27T05:56:19.003Z,4.00
2019-06-27T05:59:07.606Z,4.30
2019-06-27T06:01:55.818Z,4.37
2019-06-27T06:04:44.602Z,3.70
2019-06-27T06:07:33.046Z,4.60
2019-06-27T06:10:22.133Z,3.93
2019-06-27T06:13:10.278Z,3.50
2019-06-27T06:16:00.989Z,4.27
2019-06-27T06:18:48.495Z,3.63
2019-06-27T06:21:36.774Z,4.20
2019-06-27T06:24:24.937Z,4.50
2019-06-27T06:27:12.981Z,4.30
2019-06-27T06:30:01.717Z,3.80
2019-06-27T06:32:51.077Z,3.57
2019-06-27T06:35:39.582Z,4.73
2019-06-27T06:38:28.158Z,4.37
2019-06-27T06:41:16.858Z,4.37
2019-06-27T06:44:05.163Z,3.67
2019-06-27T06:46:53.462Z,3.60
2019-06-27T06:49:42.267Z,5.30
2019-06-27T06:52:30.398Z,4.20
2019-06-27T06:55:19.003Z,5.03
2019-06-27T06:58:07.587Z,4.97
2019-06-27T07:01:01.676Z,4.67
2019-06-27T07:03:45.322Z,5.30
2019-06-27T07:06:33.389Z,4.60
2019-06-27T07:09:21.482Z,5.43
2019-06-27T07:12:09.643Z,4.83
2019-06-27T07:14:57.837Z,5.47
2019-06-27T07:17:46.423Z,4.50
2019-06-27T07:20:34.611Z,4.80
2019-06-27T07:23:23.509Z,5.07
2019-06-27T07:26:11.947Z,5.20
2019-06-27T07:29:00.161Z,5.53
2019-06-27T07:31:47.893Z,4.70
2019-06-27T07:34:35.994Z,5.63
2019-06-27T07:37:24.633Z,5.20
2019-06-27T07:40:13.565Z,5.40
2019-06-27T07:43:01.818Z,4.30
2019-06-27T07:45:50.214Z,5.57
2019-06-27T07:48:38.248Z,4.77
2019-06-27T07:51:27.462Z,4.33
2019-06-27T07:54:16.380Z,4.40
2019-06-27T07:57:04.789Z,4.37
2019-06-27T07:59:53.318Z,4.80
2019-06-27T08:02:42.390Z,4.03
2019-06-27T08:05:31.415Z,3.90
2019-06-27T08:08:20.189Z,3.70
2019-06-27T08:11:08.697Z,3.87
2019-06-27T08:13:57.309Z,5.57
2019-06-27T08:16:45.585Z,4.77
2019-06-27T08:19:33.850Z,4.53
2019-06-27T08:22:22.051Z,4.07
2019-06-27T08:25:11.671Z,4.53
2019-06-27T08:27:59.710Z,4.93
2019-06-27T08:30:48.155Z,4.43
2019-06-27T08:33:36.648Z,4.37
2019-06-27T08:36:25.460Z,4.30
2019-06-27T08:39:13.785Z,4.73
2019-06-27T08:42:02.293Z,4.83
2019-06-27T08:44:50.071Z,4.33
2019-06-27T08:47:39.302Z,4.27
2019-06-27T08:50:27.845Z,4.03
2019-06-27T08:53:16.222Z,5.20
2019-06-27T08:56:04.687Z,4.77
2019-06-27T08:58:53.258Z,5.10
2019-06-27T09:01:41.782Z,4.80
2019-06-27T09:04:31.013Z,5.07
2019-06-27T09:07:19.235Z,5.00
2019-06-27T09:10:08.093Z,4.75
2019-06-27T09:12:56.589Z,4.10
2019-06-27T09:15:45.079Z,4.10
2019-06-27T09:18:33.991Z,4.62
2019-06-27T09:21:22.855Z,3.95
2019-06-27T09:24:10.998Z,3.98
2019-06-27T09:26:59.762Z,4.97
2019-06-27T09:29:48.793Z,4.87
2019-06-27T09:32:37.558Z,3.30
2019-06-27T09:35:25.810Z,3.90
2019-06-27T09:38:14.423Z,4.42
2019-06-27T09:41:03.210Z,3.15
2019-06-27T09:43:51.521Z,3.87
2019-06-27T09:46:39.541Z,4.30
2019-06-27T09:49:27.422Z,4.00
2019-06-27T09:52:15.653Z,4.03
2019-06-27T09:55:04.449Z,3.83
2019-06-27T09:57:53.206Z,4.33
2019-06-27T10:00:41.644Z,3.50
2019-06-27T10:03:29.608Z,4.00
2019-06-27T10:06:18.237Z,3.75
2019-06-27T10:09:06.490Z,3.55
2019-06-27T10:11:54.834Z,3.20
2019-06-27T10:14:43.791Z,4.28
2019-06-27T10:17:32.371Z,4.05
2019-06-27T10:20:20.834Z,4.37
2019-06-27T10:23:09.130Z,3.50
2019-06-27T10:25:58.932Z,3.37
2019-06-27T10:28:47.321Z,3.05
2019-06-27T10:31:36.543Z,3.40
2019-06-27T10:34:24.433Z,2.80
2019-06-27T10:37:12.946Z,3.92
2019-06-27T10:40:01.290Z,2.83
2019-06-27T10:42:49.702Z,3.80
2019-06-27T10:45:38.064Z,4.08
2019-06-27T10:48:25.644Z,2.60
2019-06-27T10:51:13.390Z,3.83
2019-06-27T10:54:01.516Z,2.87
2019-06-27T10:56:50.040Z,3.47
2019-06-27T10:59:38.444Z,3.02
2019-06-27T11:02:26.578Z,4.15
2019-06-27T11:05:15.393Z,3.50
2019-06-27T11:08:03.615Z,2.98
2019-06-27T11:10:52.101Z,3.20
2019-06-27T11:13:40.820Z,3.08
2019-06-27T11:16:28.954Z,3.35
2019-06-27T11:19:17.517Z,4.25
2019-06-27T11:22:05.948Z,3.95
2019-06-27T11:24:54.065Z,3.60
2019-06-27T11:27:43.262Z,3.75
2019-06-27T11:30:31.773Z,4.05
2019-06-27T11:33:31.835Z,3.92
2019-06-27T11:36:09.811Z,3.45
2019-06-27T11:38:58.694Z,3.65
2019-06-27T11:41:46.692Z,4.17
2019-06-27T11:44:35.891Z,4.05
2019-06-27T11:47:24.834Z,3.65
2019-06-27T11:50:13.453Z,4.00
2019-06-27T11:53:01.950Z,3.98
2019-06-27T11:55:50.410Z,3.15
2019-06-27T11:58:38.237Z,3.55
2019-06-27T12:01:26.718Z,4.15
2019-06-27T12:04:14.500Z,3.10
2019-06-27T12:07:03.034Z,2.92
2019-06-27T12:09:53.922Z,2.90
2019-06-27T12:12:41.774Z,3.08
2019-06-27T12:15:30.430Z,3.47
2019-06-27T12:18:19.101Z,3.92
2019-06-27T12:21:07.147Z,3.25
2019-06-27T12:23:55.434Z,3.10
2019-06-27T12:26:44.005Z,3.85
2019-06-27T12:29:32.316Z,3.58
2019-06-27T12:32:20.933Z,3.42
2019-06-27T12:35:10.223Z,3.15
2019-06-27T12:37:57.809Z,3.40
2019-06-27T12:40:46.009Z,3.83
2019-06-27T12:43:33.933Z,4.00
2019-06-27T12:46:22.319Z,4.00
2019-06-27T12:49:10.282Z,3.65
2019-06-27T12:51:58.454Z,3.70
2019-06-27T12:54:47.286Z,3.85
2019-06-27T12:57:35.690Z,3.67
2019-06-27T13:00:24.482Z,2.98
2019-06-27T13:03:13.180Z,2.85
2019-06-27T13:06:01.106Z,3.12
2019-06-27T13:08:49.899Z,3.10
2019-06-27T13:11:38.437Z,3.67
2019-06-27T13:14:26.538Z,3.30
2019-06-27T13:17:14.959Z,3.33
2019-06-27T13:20:03.302Z,2.47
2019-06-27T13:22:51.197Z,3.33
2019-06-27T13:25:40.523Z,3.00
2019-06-27T13:28:28.861Z,3.15
2019-06-27T13:31:17.198Z,2.85
2019-06-27T13:34:05.791Z,3.00
2019-06-27T13:36:53.965Z,3.00
2019-06-27T13:39:41.887Z,3.30
2019-06-27T13:42:30.338Z,2.92
2019-06-27T13:45:18.943Z,3.45
2019-06-27T13:48:06.722Z,2.83
2019-06-27T13:50:57.809Z,2.80
2019-06-27T13:53:45.562Z,3.50
2019-06-27T13:56:33.243Z,3.08
2019-06-27T13:59:21.946Z,2.70
2019-06-27T14:02:10.182Z,3.42
2019-06-27T14:04:58.504Z,2.77
2019-06-27T14:07:46.747Z,2.92
2019-06-27T14:10:35.285Z,2.85
2019-06-27T14:13:22.979Z,3.15
2019-06-27T14:16:11.114Z,2.90
2019-06-27T14:18:59.337Z,3.08
2019-06-27T14:21:48.958Z,3.00
2019-06-27T14:24:37.415Z,3.50
2019-06-27T14:27:25.638Z,3.20
2019-06-27T14:30:13.634Z,3.85
2019-06-27T14:33:01.469Z,3.42
2019-06-27T14:35:49.384Z,3.67
2019-06-27T14:38:37.666Z,3.40
2019-06-27T14:41:25.512Z,3.25
2019-06-27T14:44:13.680Z,3.80
2019-06-27T14:47:01.670Z,3.10
2019-06-27T14:49:49.572Z,3.20
2019-06-27T14:52:38.106Z,3.08
2019-06-27T14:55:26.238Z,3.12
2019-06-27T14:58:14.354Z,2.85
2019-06-27T15:01:05.129Z,2.55
2019-06-27T15:03:52.294Z,3.75
2019-06-27T15:06:40.966Z,2.70
2019-06-27T15:09:29.767Z,3.42
2019-06-27T15:12:18.492Z,3.08
2019-06-27T15:15:06.730Z,3.10
2019-06-27T15:17:55.366Z,2.95
2019-06-27T15:20:44.367Z,3.15
2019-06-27T15:23:33.050Z,3.17
2019-06-27T15:26:22.119Z,3.17
2019-06-27T15:29:10.237Z,3.60
2019-06-27T15:31:59.111Z,3.58
2019-06-27T15:34:47.634Z,3.92
2019-06-27T15:37:36.271Z,3.77
2019-06-27T15:40:25.132Z,3.20
2019-06-27T15:43:12.863Z,3.90
2019-06-27T15:46:00.694Z,4.62
2019-06-27T15:48:49.255Z,4.65
2019-06-27T15:51:37.207Z,4.15
2019-06-27T15:54:25.858Z,3.77
2019-06-27T15:57:13.689Z,3.83
2019-06-27T16:00:01.351Z,2.80
2019-06-27T16:02:49.390Z,3.70
2019-06-27T16:05:37.817Z,2.90
2019-06-27T16:08:26.740Z,3.13
2019-06-27T16:11:15.852Z,2.97
2019-06-27T16:14:04.466Z,2.80
2019-06-27T16:16:53.136Z,3.73
2019-06-27T16:19:41.634Z,3.20
2019-06-27T16:22:29.826Z,3.57
2019-06-27T16:25:18.222Z,3.47
2019-06-27T16:28:05.937Z,3.57
2019-06-27T16:30:55.742Z,4.00
2019-06-27T16:33:44.456Z,3.63
2019-06-27T16:36:33.158Z,3.97
2019-06-27T16:39:21.181Z,3.70
2019-06-27T16:42:09.539Z,3.50
2019-06-27T16:44:57.442Z,2.80
2019-06-27T16:47:45.603Z,3.17
2019-06-27T16:50:33.468Z,3.47
2019-06-27T16:53:21.715Z,3.00
2019-06-27T16:56:10.498Z,2.87
2019-06-27T16:58:58.841Z,2.80
2019-06-27T17:01:47.154Z,3.40
2019-06-27T17:04:35.464Z,2.60
2019-06-27T17:07:24.650Z,2.40
2019-06-27T17:10:14.098Z,2.83
2019-06-27T17:13:02.500Z,2.40
2019-06-27T17:15:50.245Z,3.50
2019-06-27T17:18:39.181Z,3.83
2019-06-27T17:21:27.533Z,3.37
2019-06-27T17:24:16.717Z,2.33
2019-06-27T17:27:05.419Z,2.40
2019-06-27T17:29:54.190Z,2.13
2019-06-27T17:32:42.943Z,2.47
2019-06-27T17:35:31.404Z,2.20
2019-06-27T17:38:19.685Z,2.33
2019-06-27T17:41:07.938Z,2.70
2019-06-27T17:43:56.566Z,2.53
2019-06-27T17:46:46.545Z,2.80
2019-06-27T17:49:34.481Z,2.70
2019-06-27T17:52:22.244Z,2.57
2019-06-27T17:55:10.903Z,2.83
2019-06-27T17:57:59.425Z,2.50
2019-06-27T18:00:47.870Z,2.83
2019-06-27T18:03:36.450Z,2.33
2019-06-27T18:06:24.743Z,2.07
2019-06-27T18:09:13.151Z,2.53
2019-06-27T18:12:01.386Z,2.93
2019-06-27T18:14:49.931Z,2.77
2019-06-27T18:17:38.795Z,3.47
2019-06-27T18:20:26.998Z,2.77
2019-06-27T18:23:15.140Z,3.07
2019-06-27T18:26:04.334Z,3.00
2019-06-27T18:28:53.259Z,3.00
2019-06-27T18:31:41.189Z,3.23
2019-06-27T18:34:29.442Z,4.00
2019-06-27T18:37:29.348Z,4.07
2019-06-27T18:40:07.700Z,3.10
2019-06-27T18:42:55.754Z,3.53
2019-06-27T18:45:44.028Z,3.47
2019-06-27T18:48:32.364Z,3.60
2019-06-27T18:51:20.198Z,3.27
2019-06-27T18:54:08.263Z,2.93
2019-06-27T18:56:56.400Z,2.93
2019-06-27T18:59:44.832Z,3.17
2019-06-27T19:02:33.234Z,3.03
2019-06-27T19:05:22.038Z,2.63
2019-06-27T19:08:10.129Z,2.33
2019-06-27T19:10:58.320Z,2.63
2019-06-27T19:13:47.414Z,2.50
2019-06-27T19:16:36.486Z,2.27
2019-06-27T19:19:27.638Z,2.50
2019-06-27T19:22:40.827Z,2.93
2019-06-27T19:25:32.783Z,2.53
2019-06-27T19:28:20.469Z,2.50
2019-06-27T19:31:08.171Z,2.20
2019-06-27T19:33:55.831Z,2.87
2019-06-27T19:36:44.194Z,2.57
2019-06-27T19:39:32.427Z,2.53
2019-06-27T19:42:20.846Z,2.80
2019-06-27T19:45:09.431Z,2.10
2019-06-27T19:47:57.506Z,2.17
2019-06-27T19:50:46.395Z,2.73
2019-06-27T19:53:34.563Z,2.37
2019-06-27T19:56:22.564Z,2.40
2019-06-27T19:59:10.853Z,3.13
2019-06-27T20:01:58.750Z,2.30
2019-06-27T20:04:47.300Z,2.17
2019-06-27T20:07:35.414Z,2.57
2019-06-27T20:10:23.389Z,2.17
2019-06-27T20:13:11.880Z,2.67
2019-06-27T20:16:00.203Z,2.50
2019-06-27T20:18:49.147Z,2.77
2019-06-27T20:21:38.518Z,3.00
2019-06-27T20:24:27.550Z,2.60
2019-06-27T20:27:15.601Z,3.20
2019-06-27T20:30:03.448Z,2.70
2019-06-27T20:32:51.378Z,2.90
2019-06-27T20:35:39.642Z,2.47
2019-06-27T20:38:35.034Z,3.10
2019-06-27T20:41:17.837Z,2.87
2019-06-27T20:44:05.631Z,2.93
2019-06-27T20:46:54.442Z,2.80
2019-06-27T20:49:42.655Z,3.53
2019-06-27T20:52:31.338Z,3.03
2019-06-27T20:55:19.495Z,2.50
2019-06-27T20:58:07.641Z,4.00
2019-06-27T21:00:56.098Z,3.90
2019-06-27T21:03:44.611Z,4.43
2019-06-27T21:06:33.286Z,3.97
2019-06-27T21:09:21.857Z,4.20
2019-06-27T21:12:10.931Z,5.03
2019-06-27T21:14:58.902Z,5.27
2019-06-27T21:17:47.523Z,5.60
2019-06-27T21:20:36.725Z,5.90
2019-06-27T21:23:24.845Z,5.47
2019-06-27T21:26:13.332Z,6.23
2019-06-27T21:29:01.477Z,6.37
2019-06-27T21:31:49.771Z,6.10
2019-06-27T21:34:37.790Z,5.93
2019-06-27T21:37:25.938Z,6.13
2019-06-27T21:40:15.645Z,6.53
2019-06-27T21:43:04.214Z,5.97
2019-06-27T21:45:53.017Z,6.30
2019-06-27T21:48:41.650Z,6.17
2019-06-27T21:51:29.872Z,6.30
2019-06-27T21:54:19.163Z,5.80
2019-06-27T21:57:07.839Z,5.73
2019-06-27T21:59:55.844Z,6.97
2019-06-27T22:02:44.309Z,6.07
2019-06-27T22:05:32.686Z,6.67
2019-06-27T22:08:20.811Z,5.60
2019-06-27T22:11:09.790Z,6.40
2019-06-27T22:13:58.138Z,6.90
2019-06-27T22:16:47.147Z,6.93
2019-06-27T22:19:36.061Z,6.97
2019-06-27T22:22:24.897Z,6.70
2019-06-27T22:25:12.954Z,6.37
2019-06-27T22:28:00.804Z,6.97
2019-06-27T22:30:49.260Z,6.67
2019-06-27T22:33:37.472Z,5.50
2019-06-27T22:36:25.470Z,7.13
2019-06-27T22:39:40.482Z,5.57
2019-06-27T22:42:38.480Z,5.80
2019-06-27T22:45:44.335Z,5.87
2019-06-27T22:48:32.815Z,6.63
2019-06-27T22:51:32.739Z,6.30
2019-06-27T22:54:21.922Z,5.23
2019-06-27T22:57:10.444Z,6.00
2019-06-27T22:59:58.866Z,6.00
2019-06-27T23:02:47.359Z,5.97
2019-06-27T23:05:35.566Z,5.50
2019-06-27T23:08:24.206Z,6.00
2019-06-27T23:11:12.867Z,5.87
2019-06-27T23:14:01.666Z,5.70
2019-06-27T23:16:50.302Z,5.03
2019-06-27T23:19:39.190Z,6.57
2019-06-27T23:22:27.923Z,5.40
2019-06-27T23:25:16.337Z,5.77
2019-06-27T23:28:04.973Z,5.70
2019-06-27T23:30:53.782Z,6.30
2019-06-27T23:33:42.401Z,5.00
2019-06-27T23:36:31.301Z,6.40
2019-06-27T23:39:19.799Z,5.10
2019-06-27T23:42:08.957Z,6.47
2019-06-27T23:44:57.504Z,6.80
2019-06-27T23:47:45.991Z,6.27
2019-06-27T23:50:34.454Z,6.13
2019-06-27T23:53:23.406Z,5.93
2019-06-27T23:56:12.045Z,6.27
2019-06-27T23:59:00.394Z,6.87
